| time (UTC) | temp C | wind direction | speed KPH | gust KPH | rain 1hr cm | rain 24hr cm | rain mn cm | humidity % | barometer mb |
| 20260506224623 | 14 | 154 | 3.2 | 6.4 | 0.13 | 0.76 | 0.76 | 97 | 995.2 |
| 20260506224353 | 14 | 190 | 3.2 | 4.8 | 0.13 | 0.76 | 0.76 | 97 | 995.1 |
| 20260506223622 | 14 | 0 | 3.2 | 4.8 | 0.13 | 0.76 | 0.76 | 97 | 995.0 |
| 20260506223123 | 14 | 192 | 3.2 | 4.8 | 0.13 | 0.76 | 0.76 | 97 | 995.0 |
| 20260506222623 | 14 | 169 | 3.2 | 4.8 | 0.13 | 0.76 | 0.76 | 97 | 995.0 |
| 20260506222123 | 14 | 182 | 3.2 | 4.8 | 0.13 | 0.76 | 0.76 | 97 | 995.0 |
| 20260506221623 | 14 | 164 | 3.2 | 4.8 | 0.10 | 0.76 | 0.76 | 96 | 995.0 |
| 20260506221123 | 14 | 194 | 3.2 | 4.8 | 0.10 | 0.76 | 0.76 | 96 | 995.0 |
| 20260506220623 | 14 | 176 | 3.2 | 4.8 | 0.10 | 0.76 | 0.76 | 96 | 995.0 |
| 20260506220611 | 14 | 177 | 3.2 | 4.8 | 0.10 | 0.76 | 0.76 | 96 | 995.1 |
| 20260506215608 | 14 | 162 | 3.2 | 6.4 | 0.10 | 0.74 | 0.74 | 96 | 995.1 |
| 20260506215054 | 14 | 152 | 3.2 | 6.4 | 0.03 | 0.69 | 0.69 | 96 | 995.0 |
| 20260506214554 | 15 | 136 | 3.2 | 4.8 | 0.00 | 0.66 | 0.66 | 96 | 995.0 |
| 20260506214043 | 15 | 167 | 3.2 | 8.0 | 0.00 | 0.66 | 0.66 | 96 | 995.1 |
| 20260506214037 | 15 | 162 | 3.2 | 4.8 | 0.00 | 0.66 | 0.66 | 96 | 995.1 |
| 20260506213040 | 15 | 183 | 3.2 | 8.0 | 0.03 | 0.66 | 0.66 | 96 | 995.1 |
| 20260506212538 | 15 | 175 | 4.8 | 6.4 | 0.05 | 0.66 | 0.66 | 96 | 995.0 |
| 20260506212038 | 15 | 177 | 3.2 | 6.4 | 0.05 | 0.66 | 0.66 | 96 | 995.2 |
| 20260506211538 | 15 | 170 | 3.2 | 6.4 | 0.10 | 0.66 | 0.66 | 96 | 995.2 |
| 20260506211309 | 15 | 134 | 3.2 | 6.4 | 0.10 | 0.66 | 0.66 | 96 | 995.1 |
| 20260506210538 | 15 | 194 | 3.2 | 6.4 | 0.10 | 0.66 | 0.66 | 96 | 995.2 |
| 20260506210024 | 15 | 195 | 3.2 | 6.4 | 0.10 | 0.66 | 0.66 | 96 | 995.3 |
| 20260506205531 | 15 | 168 | 3.2 | 4.8 | 0.10 | 0.66 | 0.66 | 96 | 995.5 |
| 20260506205525 | 15 | 182 | 4.8 | 6.4 | 0.10 | 0.66 | 0.66 | 96 | 995.4 |
| 20260506204525 | 15 | 111 | 4.8 | 6.4 | 0.13 | 0.66 | 0.66 | 96 | 995.6 |
| 20260506204024 | 15 | 182 | 3.2 | 6.4 | 0.13 | 0.66 | 0.66 | 95 | 995.6 |
| 20260506203525 | 15 | 186 | 3.2 | 6.4 | 0.10 | 0.64 | 0.64 | 95 | 995.6 |
| 20260506203025 | 15 | 178 | 3.2 | 6.4 | 0.10 | 0.64 | 0.64 | 95 | 995.6 |
| 20260506202525 | 15 | 186 | 3.2 | 6.4 | 0.08 | 0.61 | 0.61 | 95 | 995.5 |
| 20260506202025 | 15 | 170 | 4.8 | 6.4 | 0.08 | 0.58 | 0.58 | 95 | 995.6 |
| 20260506201756 | 15 | 169 | 3.2 | 4.8 | 0.05 | 0.56 | 0.56 | 95 | 995.7 |
| 20260506201011 | 15 | 139 | 3.2 | 4.8 | 0.05 | 0.56 | 0.56 | 95 | 995.6 |
| 20260506200457 | 15 | 174 | 4.8 | 6.4 | 0.05 | 0.53 | 0.53 | 95 | 995.7 |
| 20260506195955 | 15 | 146 | 3.2 | 6.4 | 0.05 | 0.53 | 0.53 | 95 | 995.6 |
| 20260506195456 | 15 | 185 | 4.8 | 6.4 | 0.05 | 0.53 | 0.53 | 95 | 995.7 |
| 20260506195227 | 15 | 186 | 4.8 | 8.0 | 0.08 | 0.53 | 0.53 | 95 | 995.7 |
| 20260506194457 | 15 | 185 | 4.8 | 8.0 | 0.08 | 0.53 | 0.53 | 95 | 995.8 |
| 20260506194228 | 15 | 171 | 4.8 | 8.0 | 0.08 | 0.53 | 0.53 | 94 | 995.8 |
| 20260506193457 | 15 | 188 | 4.8 | 8.0 | 0.10 | 0.53 | 0.53 | 94 | 995.9 |
| 20260506193228 | 15 | 142 | 4.8 | 6.4 | 0.15 | 0.53 | 0.53 | 94 | 996.0 |
| 20260506192458 | 15 | 142 | 4.8 | 6.4 | 0.15 | 0.51 | 0.51 | 94 | 996.0 |
| 20260506191956 | 15 | 291 | 3.2 | 6.4 | 0.13 | 0.51 | 0.51 | 94 | 996.0 |
| 20260506191458 | 15 | 153 | 3.2 | 6.4 | 0.15 | 0.51 | 0.51 | 94 | 996.2 |
| 20260506190926 | 15 | 155 | 3.2 | 6.4 | 0.18 | 0.51 | 0.51 | 94 | 996.1 |
| 20260506190428 | 15 | 169 | 3.2 | 6.4 | 0.18 | 0.51 | 0.51 | 94 | 996.0 |
| 20260506185927 | 15 | 181 | 3.2 | 6.4 | 0.18 | 0.51 | 0.51 | 94 | 996.1 |
| 20260506185658 | 15 | 178 | 3.2 | 6.4 | 0.18 | 0.48 | 0.48 | 94 | 996.3 |
| 20260506185538 | 15 | 187 | 4.8 | 8.0 | 0.18 | 0.46 | 0.46 | 94 | 996.4 |
| 20260506184428 | 15 | 175 | 4.8 | 8.0 | 0.20 | 0.46 | 0.46 | 94 | 996.4 |
| 20260506184150 | 15 | 209 | 3.2 | 6.4 | 0.18 | 0.43 | 0.43 | 94 | 996.4 |
| 20260506183652 | 15 | 146 | 4.8 | 8.0 | 0.18 | 0.41 | 0.41 | 94 | 996.5 |
| 20260506183150 | 15 | 188 | 3.2 | 8.0 | 0.18 | 0.38 | 0.38 | 94 | 996.4 |
| 20260506182420 | 15 | 200 | 3.2 | 6.4 | 0.18 | 0.38 | 0.38 | 94 | 996.2 |
| 20260506181919 | 15 | 138 | 3.2 | 6.4 | 0.23 | 0.38 | 0.38 | 94 | 996.2 |
| 20260506181421 | 15 | 164 | 3.2 | 6.4 | 0.23 | 0.36 | 0.36 | 94 | 996.2 |
| 20260506180915 | 15 | 146 | 1.6 | 6.4 | 0.25 | 0.33 | 0.33 | 94 | 996.2 |
| 20260506180418 | 15 | 185 | 1.6 | 4.8 | 0.25 | 0.33 | 0.33 | 94 | 996.3 |
| 20260506175923 | 15 | 202 | 3.2 | 6.4 | 0.28 | 0.28 | 0.28 | 93 | 996.8 |
| 20260506175916 | 15 | 171 | 1.6 | 6.4 | 0.28 | 0.30 | 0.30 | 93 | 996.5 |
| 20260506175521 | 15 | 0 | 3.2 | 6.4 | 0.28 | 0.30 | 0.30 | 93 | 996.6 |
| 20260506174418 | 15 | 176 | 3.2 | 6.4 | 0.25 | 0.25 | 0.25 | 93 | 996.9 |
| 20260506174143 | 15 | 144 | 3.2 | 4.8 | 0.23 | 0.23 | 0.23 | 93 | 997.0 |
| 20260506173417 | 15 | 169 | 3.2 | 4.8 | 0.23 | 0.23 | 0.23 | 93 | 997.2 |
| 20260506172912 | 15 | 184 | 3.2 | 6.4 | 0.20 | 0.20 | 0.20 | 92 | 997.3 |
| 20260506172413 | 15 | 194 | 3.2 | 6.4 | 0.18 | 0.18 | 0.18 | 92 | 997.3 |
| 20260506171911 | 15 | 201 | 3.2 | 6.4 | 0.15 | 0.15 | 0.15 | 91 | 997.4 |
| 20260506171408 | 16 | 229 | 3.2 | 8.0 | 0.10 | 0.10 | 0.10 | 90 | 997.6 |
| 20260506171139 | 16 | 192 | 3.2 | 8.0 | 0.08 | 0.08 | 0.08 | 89 | 997.5 |
| 20260506170409 | 16 | 207 | 4.8 | 9.7 | 0.05 | 0.05 | 0.05 | 87 | 997.6 |
| 20260506165907 | 17 | 209 | 4.8 | 9.7 | 0.05 | 0.05 | 0.05 | 85 | 997.7 |
| 20260506165409 | 17 | 159 | 4.8 | 11.3 | 0.03 | 0.03 | 0.03 | 81 | 997.7 |
| 20260506164908 | 18 | 145 | 4.8 | 11.3 | 0.00 | 0.00 | 0.00 | 78 | 997.6 |
| 20260506164409 | 18 | 190 | 6.4 | 14.5 | 0.00 | 0.00 | 0.00 | 76 | 997.6 |
| 20260506163908 | 18 | 112 | 6.4 | 14.5 | 0.00 | 0.00 | 0.00 | 76 | 997.5 |
| 20260506163642 | 18 | 202 | 6.4 | 11.3 | 0.00 | 0.00 | 0.00 | 75 | 997.4 |
| 20260506162908 | 18 | 183 | 6.4 | 12.9 | 0.00 | 0.00 | 0.00 | 75 | 997.3 |
| 20260506162409 | 18 | 196 | 6.4 | 12.9 | 0.00 | 0.00 | 0.00 | 74 | 997.3 |
| 20260506162139 | 18 | 190 | 6.4 | 14.5 | 0.00 | 0.00 | 0.00 | 74 | 997.3 |
| 20260506161410 | 18 | 180 | 6.4 | 14.5 | 0.00 | 0.00 | 0.00 | 74 | 997.4 |
| 20260506160906 | 18 | 116 | 6.4 | 11.3 | 0.00 | 0.00 | 0.00 | 73 | 997.5 |
| 20260506160639 | 19 | 182 | 6.4 | 9.7 | 0.00 | 0.00 | 0.00 | 74 | 997.6 |
| 20260506155906 | 19 | 159 | 4.8 | 9.7 | 0.00 | 0.00 | 0.00 | 73 | 997.7 |
| 20260506155407 | 19 | 188 | 4.8 | 9.7 | 0.00 | 0.00 | 0.00 | 73 | 997.9 |
| 20260506155257 | 19 | 176 | 6.4 | 11.3 | 0.00 | 0.00 | 0.00 | 72 | 997.8 |
| 20260506155143 | 19 | 174 | 4.8 | 11.3 | 0.00 | 0.00 | 0.00 | 73 | 997.8 |
| 20260506153906 | 19 | 184 | 4.8 | 11.3 | 0.00 | 0.00 | 0.00 | 73 | 997.8 |
| 20260506153638 | 19 | 180 | 4.8 | 8.0 | 0.00 | 0.00 | 0.00 | 72 | 997.8 |
| 20260506152906 | 19 | 194 | 4.8 | 8.0 | 0.00 | 0.00 | 0.00 | 73 | 997.8 |
| 20260506152408 | 19 | 209 | 4.8 | 8.0 | 0.00 | 0.00 | 0.00 | 73 | 997.8 |
| 20260506151907 | 19 | 132 | 4.8 | 9.7 | 0.00 | 0.00 | 0.00 | 73 | 997.8 |
| 20260506151640 | 19 | 182 | 6.4 | 11.3 | 0.00 | 0.00 | 0.00 | 73 | 997.8 |
| 20260506150905 | 19 | 205 | 6.4 | 11.3 | 0.00 | 0.00 | 0.00 | 73 | 997.9 |
| 20260506150406 | 18 | 204 | 4.8 | 9.7 | 0.00 | 0.00 | 0.00 | 73 | 997.9 |
| 20260506145905 | 18 | 184 | 3.2 | 8.0 | 0.00 | 0.00 | 0.00 | 75 | 998.0 |
| 20260506145407 | 18 | 182 | 3.2 | 8.0 | 0.00 | 0.00 | 0.00 | 75 | 998.0 |
| 20260506144905 | 18 | 197 | 4.8 | 8.0 | 0.00 | 0.00 | 0.00 | 75 | 998.1 |
| 20260506144406 | 18 | 195 | 4.8 | 12.9 | 0.00 | 0.00 | 0.00 | 75 | 998.3 |
| 20260506144135 | 18 | 176 | 4.8 | 12.9 | 0.00 | 0.00 | 0.00 | 75 | 998.2 |
| 20260506143406 | 18 | 152 | 4.8 | 12.9 | 0.00 | 0.00 | 0.00 | 75 | 998.2 |
| 20260506142905 | 18 | 184 | 4.8 | 9.7 | 0.00 | 0.00 | 0.00 | 75 | 998.3 |
| 20260506142406 | 18 | 194 | 4.8 | 9.7 | 0.00 | 0.00 | 0.00 | 76 | 998.2 |
| 20260506141906 | 18 | 119 | 3.2 | 9.7 | 0.00 | 0.00 | 0.00 | 76 | 998.2 |
| 20260506141407 | 18 | 203 | 3.2 | 9.7 | 0.00 | 0.00 | 0.00 | 77 | 998.3 |
| 20260506141132 | 18 | 222 | 4.8 | 9.7 | 0.00 | 0.00 | 0.00 | 77 | 998.3 |
| 20260506140633 | 18 | 176 | 4.8 | 9.7 | 0.00 | 0.00 | 0.00 | 77 | 998.3 |
| 20260506135901 | 18 | 183 | 4.8 | 12.9 | 0.00 | 0.00 | 0.00 | 77 | 998.3 |
| 20260506135403 | 18 | 157 | 4.8 | 12.9 | 0.00 | 0.00 | 0.00 | 77 | 998.1 |
| 20260506134901 | 18 | 179 | 3.2 | 8.0 | 0.00 | 0.00 | 0.00 | 78 | 998.2 |
| 20260506134403 | 17 | 149 | 3.2 | 8.0 | 0.00 | 0.00 | 0.00 | 78 | 998.0 |
| 20260506134132 | 17 | 167 | 4.8 | 11.3 | 0.00 | 0.00 | 0.00 | 78 | 998.0 |
| 20260506133403 | 17 | 191 | 4.8 | 12.9 | 0.00 | 0.00 | 0.00 | 78 | 998.0 |
| 20260506132902 | 17 | 190 | 4.8 | 12.9 | 0.00 | 0.00 | 0.00 | 79 | 998.0 |
| 20260506132403 | 17 | 192 | 3.2 | 6.4 | 0.00 | 0.00 | 0.00 | 79 | 998.2 |
| 20260506131902 | 17 | 214 | 4.8 | 12.9 | 0.00 | 0.00 | 0.00 | 80 | 998.2 |
| 20260506131402 | 17 | 164 | 4.8 | 12.9 | 0.00 | 0.00 | 0.00 | 80 | 998.1 |
| 20260506130857 | 17 | 192 | 4.8 | 9.7 | 0.00 | 0.00 | 0.00 | 81 | 998.3 |
| 20260506130358 | 17 | 180 | 4.8 | 11.3 | 0.00 | 0.00 | 0.00 | 81 | 998.2 |
| 20260506125857 | 16 | 201 | 4.8 | 12.9 | 0.00 | 0.00 | 0.00 | 81 | 998.3 |
| 20260506125359 | 16 | 225 | 4.8 | 12.9 | 0.00 | 0.00 | 0.00 | 82 | 998.4 |
| 20260506124857 | 16 | 160 | 4.8 | 9.7 | 0.00 | 0.00 | 0.00 | 82 | 998.6 |
| 20260506124358 | 16 | 193 | 4.8 | 11.3 | 0.00 | 0.00 | 0.00 | 82 | 998.7 |
| 20260506123857 | 17 | 209 | 4.8 | 11.3 | 0.00 | 0.00 | 0.00 | 82 | 998.7 |
| 20260506123358 | 17 | 179 | 4.8 | 12.9 | 0.00 | 0.00 | 0.00 | 81 | 998.7 |
| 20260506122857 | 17 | 205 | 4.8 | 12.9 | 0.00 | 0.00 | 0.00 | 81 | 998.7 |
| 20260506122629 | 16 | 200 | 6.4 | 12.9 | 0.00 | 0.00 | 0.00 | 82 | 998.7 |
| 20260506121857 | 16 | 196 | 6.4 | 12.9 | 0.00 | 0.00 | 0.00 | 82 | 998.6 |
| 20260506121629 | 16 | 203 | 4.8 | 9.7 | 0.00 | 0.00 | 0.00 | 82 | 998.5 |
| 20260506121128 | 16 | 169 | 4.8 | 9.7 | 0.00 | 0.00 | 0.00 | 82 | 998.5 |
| 20260506120356 | 16 | 177 | 4.8 | 9.7 | 0.00 | 0.00 | 0.00 | 83 | 998.6 |
| 20260506115852 | 16 | 195 | 4.8 | 9.7 | 0.00 | 0.00 | 0.00 | 83 | 998.4 |
| 20260506115353 | 16 | 174 | 4.8 | 8.0 | 0.00 | 0.00 | 0.00 | 83 | 998.5 |
| 20260506114852 | 16 | 193 | 3.2 | 9.7 | 0.00 | 0.00 | 0.00 | 84 | 998.7 |
| 20260506114354 | 16 | 224 | 4.8 | 9.7 | 0.00 | 0.00 | 0.00 | 84 | 998.6 |
| 20260506113851 | 16 | 189 | 4.8 | 9.7 | 0.00 | 0.00 | 0.00 | 84 | 998.5 |
| 20260506113626 | 16 | 185 | 4.8 | 9.7 | 0.00 | 0.00 | 0.00 | 84 | 998.4 |
| 20260506112852 | 16 | 157 | 4.8 | 9.7 | 0.00 | 0.00 | 0.00 | 84 | 998.4 |
| 20260506112624 | 16 | 153 | 4.8 | 9.7 | 0.00 | 0.00 | 0.00 | 84 | 998.4 |
| 20260506111852 | 15 | 207 | 4.8 | 9.7 | 0.00 | 0.00 | 0.00 | 84 | 998.6 |
| 20260506111353 | 15 | 202 | 4.8 | 8.0 | 0.00 | 0.00 | 0.00 | 85 | 998.9 |
| 20260506110851 | 15 | 169 | 4.8 | 8.0 | 0.00 | 0.00 | 0.00 | 85 | 998.8 |
| 20260506110352 | 15 | 262 | 4.8 | 8.0 | 0.00 | 0.00 | 0.00 | 86 | 998.7 |
| 20260506105851 | 15 | 171 | 4.8 | 11.3 | 0.00 | 0.00 | 0.00 | 86 | 998.7 |
| 20260506105352 | 15 | 217 | 4.8 | 11.3 | 0.00 | 0.00 | 0.00 | 85 | 998.7 |
| 20260506104851 | 15 | 194 | 4.8 | 9.7 | 0.00 | 0.00 | 0.00 | 85 | 998.8 |
| 20260506104743 | 15 | 155 | 4.8 | 9.7 | 0.00 | 0.00 | 0.00 | 85 | 998.6 |
| 20260506104630 | 15 | 203 | 4.8 | 9.7 | 0.00 | 0.00 | 0.00 | 85 | 998.8 |
| 20260506103350 | 15 | 146 | 4.8 | 9.7 | 0.00 | 0.00 | 0.00 | 85 | 998.4 |
| 20260506103123 | 15 | 170 | 4.8 | 9.7 | 0.00 | 0.00 | 0.00 | 85 | 998.5 |
| 20260506102352 | 15 | 146 | 4.8 | 9.7 | 0.00 | 0.00 | 0.00 | 85 | 998.5 |
| 20260506101851 | 15 | 160 | 4.8 | 9.7 | 0.00 | 0.00 | 0.00 | 85 | 998.4 |
| 20260506101349 | 15 | 156 | 4.8 | 8.0 | 0.00 | 0.00 | 0.00 | 85 | 998.4 |
| 20260506100848 | 15 | 274 | 4.8 | 8.0 | 0.00 | 0.00 | 0.00 | 85 | 998.4 |
| 20260506100621 | 15 | 163 | 3.2 | 8.0 | 0.00 | 0.00 | 0.00 | 85 | 998.4 |
| 20260506095628 | 15 | 200 | 4.8 | 9.7 | 0.00 | 0.00 | 0.00 | 85 | 998.4 |
| 20260506095128 | 15 | 93 | 4.8 | 9.7 | 0.00 | 0.00 | 0.00 | 85 | 998.4 |
| 20260506094627 | 15 | 161 | 4.8 | 9.7 | 0.00 | 0.00 | 0.00 | 85 | 998.4 |
| 20260506094359 | 15 | 181 | 6.4 | 11.3 | 0.00 | 0.00 | 0.00 | 85 | 998.4 |
| 20260506093628 | 15 | 182 | 6.4 | 11.3 | 0.00 | 0.00 | 0.00 | 85 | 998.4 |
| 20260506093128 | 15 | 182 | 4.8 | 11.3 | 0.00 | 0.00 | 0.00 | 85 | 998.3 |
| 20260506092628 | 15 | 133 | 4.8 | 8.0 | 0.00 | 0.00 | 0.00 | 85 | 998.5 |
| 20260506092128 | 15 | 103 | 4.8 | 9.7 | 0.00 | 0.00 | 0.00 | 85 | 998.4 |
| 20260506091627 | 15 | 176 | 4.8 | 9.7 | 0.00 | 0.00 | 0.00 | 85 | 998.4 |
| 20260506091125 | 15 | 180 | 4.8 | 8.0 | 0.00 | 0.00 | 0.00 | 84 | 998.4 |
| 20260506090622 | 15 | 178 | 4.8 | 8.0 | 0.00 | 0.00 | 0.00 | 84 | 998.4 |
| 20260506090121 | 15 | 229 | 4.8 | 8.0 | 0.00 | 0.00 | 0.00 | 84 | 998.4 |
| 20260506085620 | 15 | 175 | 4.8 | 8.0 | 0.00 | 0.00 | 0.00 | 84 | 998.3 |
| 20260506085350 | 15 | 179 | 4.8 | 8.0 | 0.00 | 0.00 | 0.00 | 84 | 998.4 |
| 20260506084620 | 15 | 172 | 3.2 | 8.0 | 0.00 | 0.00 | 0.00 | 83 | 998.6 |
| 20260506084120 | 15 | 147 | 3.2 | 8.0 | 0.00 | 0.00 | 0.00 | 83 | 998.6 |
| 20260506083620 | 15 | 148 | 4.8 | 8.0 | 0.00 | 0.00 | 0.00 | 83 | 998.6 |
| 20260506083120 | 15 | 187 | 4.8 | 8.0 | 0.00 | 0.00 | 0.00 | 83 | 998.6 |
| 20260506082620 | 15 | 197 | 4.8 | 8.0 | 0.00 | 0.00 | 0.00 | 83 | 998.6 |
| 20260506082351 | 15 | 176 | 4.8 | 8.0 | 0.00 | 0.00 | 0.00 | 83 | 998.5 |
| 20260506081620 | 15 | 153 | 4.8 | 8.0 | 0.00 | 0.00 | 0.00 | 83 | 998.4 |
| 20260506081347 | 15 | 179 | 4.8 | 8.0 | 0.00 | 0.00 | 0.00 | 83 | 998.5 |
| 20260506080616 | 15 | 175 | 4.8 | 8.0 | 0.00 | 0.00 | 0.00 | 83 | 998.6 |
| 20260506080116 | 15 | 181 | 4.8 | 8.0 | 0.00 | 0.00 | 0.00 | 82 | 998.6 |
| 20260506073348 | 15 | 169 | 4.8 | 8.0 | 0.00 | 0.00 | 0.00 | 82 | 998.6 |
| 20260506072624 | 15 | 184 | 4.8 | 9.7 | 0.00 | 0.00 | 0.00 | 81 | 998.7 |
| 20260506072617 | 15 | 184 | 4.8 | 8.0 | 0.00 | 0.00 | 0.00 | 82 | 998.7 |
| 20260506071617 | 15 | 155 | 4.8 | 9.7 | 0.00 | 0.00 | 0.00 | 81 | 998.7 |
| 20260506071116 | 15 | 188 | 4.8 | 9.7 | 0.00 | 0.00 | 0.00 | 81 | 998.7 |
| 20260506070615 | 15 | 180 | 4.8 | 9.7 | 0.00 | 0.00 | 0.00 | 81 | 998.7 |
| 20260506070116 | 15 | 191 | 4.8 | 9.7 | 0.00 | 0.00 | 0.00 | 81 | 998.7 |
| 20260506062112 | 16 | 198 | 4.8 | 9.7 | 0.00 | 0.00 | 0.00 | 80 | 998.5 |
| 20260506061610 | 16 | 166 | 4.8 | 9.7 | 0.00 | 0.00 | 0.00 | 80 | 998.5 |
| 20260506061107 | 16 | 189 | 4.8 | 9.7 | 0.00 | 0.00 | 0.00 | 80 | 998.6 |
| 20260506060606 | 16 | 200 | 4.8 | 9.7 | 0.00 | 0.00 | 0.00 | 80 | 998.5 |
| 20260506060337 | 16 | 200 | 4.8 | 9.7 | 0.00 | 0.00 | 0.00 | 79 | 998.6 |
| 20260506051101 | 16 | 212 | 4.8 | 9.7 | 0.00 | 0.00 | 0.00 | 77 | 998.8 |
| 20260506050602 | 16 | 193 | 4.8 | 9.7 | 0.00 | 0.00 | 0.00 | 77 | 998.8 |
| 20260506045059 | 17 | 127 | 4.8 | 9.7 | 0.00 | 0.00 | 0.00 | 76 | 999.0 |
| 20260506044600 | 17 | 209 | 4.8 | 11.3 | 0.00 | 0.00 | 0.00 | 76 | 999.0 |
| 20260506044331 | 17 | 172 | 4.8 | 11.3 | 0.00 | 0.00 | 0.00 | 75 | 998.9 |
| 20260506043559 | 17 | 118 | 4.8 | 11.3 | 0.00 | 0.00 | 0.00 | 75 | 998.9 |
| 20260506043331 | 17 | 166 | 4.8 | 11.3 | 0.00 | 0.00 | 0.00 | 74 | 998.9 |
| 20260506042600 | 17 | 190 | 4.8 | 11.3 | 0.00 | 0.00 | 0.00 | 74 | 999.0 |
| 20260506042100 | 17 | 194 | 4.8 | 9.7 | 0.00 | 0.00 | 0.00 | 74 | 999.0 |
| 20260506041601 | 17 | 197 | 4.8 | 9.7 | 0.00 | 0.00 | 0.00 | 73 | 999.0 |
| 20260506041056 | 17 | 189 | 4.8 | 9.7 | 0.00 | 0.00 | 0.00 | 73 | 999.0 |
| 20260506040557 | 17 | 179 | 6.4 | 8.0 | 0.00 | 0.00 | 0.00 | 72 | 999.0 |
| 20260506035849 | 17 | 215 | 4.8 | 9.7 | 0.00 | 0.00 | 0.00 | 71 | 999.0 |
| 20260506035118 | 17 | 129 | 4.8 | 11.3 | 0.00 | 0.00 | 0.00 | 71 | 999.0 |
| 20260506034848 | 17 | 209 | 4.8 | 11.3 | 0.00 | 0.00 | 0.00 | 70 | 999.0 |
| 20260506034118 | 17 | 234 | 4.8 | 12.9 | 0.00 | 0.00 | 0.00 | 70 | 999.1 |
| 20260506033618 | 17 | 126 | 4.8 | 12.9 | 0.00 | 0.00 | 0.00 | 69 | 999.1 |
| 20260506033349 | 17 | 194 | 4.8 | 9.7 | 0.00 | 0.00 | 0.00 | 69 | 999.1 |
| 20260506032618 | 17 | 183 | 4.8 | 8.0 | 0.00 | 0.00 | 0.00 | 69 | 999.1 |
| 20260506032118 | 17 | 179 | 4.8 | 9.7 | 0.00 | 0.00 | 0.00 | 69 | 999.1 |
| 20260506031616 | 17 | 228 | 4.8 | 9.7 | 0.00 | 0.00 | 0.00 | 68 | 999.0 |
| 20260506031117 | 17 | 174 | 4.8 | 12.9 | 0.00 | 0.00 | 0.00 | 68 | 998.9 |
| 20260506030617 | 17 | 229 | 6.4 | 12.9 | 0.00 | 0.00 | 0.00 | 68 | 999.0 |
| 20260506030117 | 17 | 120 | 4.8 | 12.9 | 0.00 | 0.00 | 0.00 | 68 | 998.9 |
| 20260506025848 | 17 | 188 | 4.8 | 11.3 | 0.00 | 0.00 | 0.00 | 68 | 998.9 |
| 20260506025117 | 17 | 176 | 4.8 | 14.5 | 0.00 | 0.00 | 0.00 | 68 | 998.8 |
| 20260506024617 | 17 | 180 | 4.8 | 14.5 | 0.00 | 0.00 | 0.00 | 68 | 998.8 |
| 20260506024118 | 17 | 136 | 4.8 | 9.7 | 0.00 | 0.00 | 0.00 | 68 | 998.8 |
| 20260506023849 | 17 | 176 | 4.8 | 9.7 | 0.00 | 0.00 | 0.00 | 69 | 998.9 |
| 20260506023117 | 17 | 176 | 3.2 | 9.7 | 0.00 | 0.00 | 0.00 | 69 | 998.8 |
| 20260506022617 | 17 | 189 | 3.2 | 9.7 | 0.00 | 0.00 | 0.00 | 69 | 998.8 |
| 20260506022113 | 17 | 165 | 3.2 | 9.7 | 0.00 | 0.00 | 0.00 | 68 | 998.9 |
| 20260506021614 | 17 | 184 | 4.8 | 11.3 | 0.00 | 0.00 | 0.00 | 69 | 998.9 |
| 20260506021111 | 17 | 139 | 4.8 | 11.3 | 0.00 | 0.00 | 0.00 | 68 | 998.9 |
| 20260506020612 | 17 | 188 | 3.2 | 9.7 | 0.00 | 0.00 | 0.00 | 68 | 998.9 |
| 20260506020343 | 17 | 215 | 3.2 | 6.4 | 0.00 | 0.00 | 0.00 | 68 | 998.9 |
| 20260506015612 | 17 | 181 | 3.2 | 11.3 | 0.00 | 0.00 | 0.00 | 68 | 998.9 |
| 20260506015112 | 17 | 173 | 3.2 | 11.3 | 0.00 | 0.00 | 0.00 | 68 | 998.9 |
| 20260506014612 | 17 | 189 | 4.8 | 12.9 | 0.00 | 0.00 | 0.00 | 68 | 998.9 |
| 20260506014112 | 17 | 162 | 4.8 | 14.5 | 0.00 | 0.00 | 0.00 | 67 | 998.8 |
| 20260506013613 | 17 | 191 | 4.8 | 14.5 | 0.00 | 0.00 | 0.00 | 67 | 998.8 |
| 20260506013343 | 17 | 196 | 4.8 | 8.0 | 0.00 | 0.00 | 0.00 | 67 | 998.7 |
| 20260506012613 | 17 | 138 | 4.8 | 8.0 | 0.00 | 0.00 | 0.00 | 66 | 998.6 |
| 20260506012108 | 17 | 224 | 4.8 | 9.7 | 0.00 | 0.00 | 0.00 | 66 | 998.5 |
| 20260506011606 | 17 | 175 | 4.8 | 12.9 | 0.00 | 0.00 | 0.00 | 66 | 998.5 |
| 20260506011102 | 17 | 143 | 4.8 | 12.9 | 0.00 | 0.00 | 0.00 | 65 | 998.4 |
| 20260506010603 | 18 | 183 | 4.8 | 8.0 | 0.00 | 0.00 | 0.00 | 65 | 998.3 |
| 20260506005603 | 18 | 194 | 4.8 | 11.3 | 0.00 | 0.00 | 0.00 | 64 | 998.2 |
| 20260506005103 | 18 | 197 | 4.8 | 9.7 | 0.00 | 0.00 | 0.00 | 63 | 998.2 |
| 20260506004834 | 18 | 176 | 4.8 | 9.7 | 0.00 | 0.00 | 0.00 | 63 | 998.2 |
| 20260506004103 | 18 | 215 | 4.8 | 9.7 | 0.00 | 0.00 | 0.00 | 63 | 998.1 |
| 20260506003603 | 18 | 197 | 4.8 | 11.3 | 0.00 | 0.00 | 0.00 | 63 | 998.1 |
| 20260506003103 | 18 | 193 | 4.8 | 11.3 | 0.00 | 0.00 | 0.00 | 62 | 997.9 |
| 20260506002603 | 18 | 99 | 4.8 | 11.3 | 0.00 | 0.00 | 0.00 | 63 | 997.8 |
| 20260506002101 | 18 | 161 | 4.8 | 9.7 | 0.00 | 0.00 | 0.00 | 62 | 997.8 |
| 20260506001602 | 18 | 191 | 4.8 | 9.7 | 0.00 | 0.00 | 0.00 | 63 | 997.8 |
| 20260506001102 | 18 | 104 | 6.4 | 11.3 | 0.00 | 0.00 | 0.00 | 62 | 997.6 |
| 20260506000601 | 19 | 146 | 6.4 | 11.3 | 0.00 | 0.00 | 0.00 | 62 | 997.5 |
| 20260505235601 | 19 | 174 | 6.4 | 11.3 | 0.00 | 0.00 | 0.00 | 62 | 997.4 |
| 20260505235101 | 19 | 138 | 6.4 | 14.5 | 0.00 | 0.00 | 0.00 | 61 | 997.4 |
| 20260505234602 | 20 | 191 | 6.4 | 14.5 | 0.00 | 0.00 | 0.00 | 61 | 997.3 |
| 20260505234102 | 20 | 168 | 6.4 | 12.9 | 0.00 | 0.00 | 0.00 | 60 | 997.2 |
| 20260505233603 | 20 | 140 | 6.4 | 12.9 | 0.00 | 0.00 | 0.00 | 60 | 997.2 |
| 20260505233102 | 20 | 196 | 4.8 | 12.9 | 0.00 | 0.00 | 0.00 | 59 | 997.0 |
| 20260505232602 | 20 | 188 | 6.4 | 12.9 | 0.00 | 0.00 | 0.00 | 59 | 996.9 |
| 20260505232058 | 20 | 153 | 6.4 | 12.9 | 0.00 | 0.00 | 0.00 | 58 | 996.8 |
| 20260505231559 | 21 | 127 | 8.0 | 17.7 | 0.00 | 0.00 | 0.00 | 57 | 996.7 |
| 20260505231059 | 21 | 188 | 8.0 | 17.7 | 0.00 | 0.00 | 0.00 | 57 | 996.7 |
| 20260505230558 | 21 | 178 | 6.4 | 12.9 | 0.00 | 0.00 | 0.00 | 56 | 996.6 |
| 20260505230057 | 21 | 195 | 6.4 | 16.1 | 0.00 | 0.00 | 0.00 | 56 | 996.5 |
| 20260505225556 | 21 | 192 | 8.0 | 16.1 | 0.00 | 0.00 | 0.00 | 55 | 996.5 |
| 20260505225057 | 21 | 194 | 8.0 | 14.5 | 0.00 | 0.00 | 0.00 | 56 | 996.6 |